sensor_id;sensor_type;location;lat;lon;timestamp;P1;durP1;ratioP1;P2;durP2;ratioP2
13951;SDS011;39535;52.192;9.886;2023-12-20T00:00:19;6.97;;;6.47;;
13951;SDS011;39535;52.192;9.886;2023-12-20T00:02:46;7.47;;;6.97;;
13951;SDS011;39535;52.192;9.886;2023-12-20T00:05:13;6.53;;;6.10;;
13951;SDS011;39535;52.192;9.886;2023-12-20T00:07:39;6.63;;;6.13;;
13951;SDS011;39535;52.192;9.886;2023-12-20T00:10:06;7.43;;;6.93;;
13951;SDS011;39535;52.192;9.886;2023-12-20T00:12:33;6.37;;;5.93;;
13951;SDS011;39535;52.192;9.886;2023-12-20T00:15:00;6.57;;;6.07;;
13951;SDS011;39535;52.192;9.886;2023-12-20T00:17:27;6.77;;;6.27;;
13951;SDS011;39535;52.192;9.886;2023-12-20T00:19:53;7.20;;;6.60;;
13951;SDS011;39535;52.192;9.886;2023-12-20T00:22:19;7.17;;;6.57;;
13951;SDS011;39535;52.192;9.886;2023-12-20T00:24:46;7.77;;;7.07;;
13951;SDS011;39535;52.192;9.886;2023-12-20T00:27:12;8.20;;;7.50;;
13951;SDS011;39535;52.192;9.886;2023-12-20T00:29:39;6.77;;;6.27;;
13951;SDS011;39535;52.192;9.886;2023-12-20T00:32:09;7.27;;;6.67;;
13951;SDS011;39535;52.192;9.886;2023-12-20T00:34:35;7.00;;;6.47;;
13951;SDS011;39535;52.192;9.886;2023-12-20T00:37:01;7.20;;;6.60;;
13951;SDS011;39535;52.192;9.886;2023-12-20T00:39:28;6.53;;;6.03;;
13951;SDS011;39535;52.192;9.886;2023-12-20T00:41:54;6.23;;;5.23;;
13951;SDS011;39535;52.192;9.886;2023-12-20T00:44:20;6.37;;;5.77;;
13951;SDS011;39535;52.192;9.886;2023-12-20T00:46:47;6.97;;;5.93;;
13951;SDS011;39535;52.192;9.886;2023-12-20T00:49:14;5.73;;;5.10;;
13951;SDS011;39535;52.192;9.886;2023-12-20T00:51:41;8.80;;;5.20;;
13951;SDS011;39535;52.192;9.886;2023-12-20T00:54:07;6.13;;;5.53;;
13951;SDS011;39535;52.192;9.886;2023-12-20T00:56:34;5.37;;;4.87;;
13951;SDS011;39535;52.192;9.886;2023-12-20T00:59:00;6.90;;;5.90;;
13951;SDS011;39535;52.192;9.886;2023-12-20T01:01:27;5.67;;;5.07;;
13951;SDS011;39535;52.192;9.886;2023-12-20T01:03:53;6.77;;;5.20;;
13951;SDS011;39535;52.192;9.886;2023-12-20T01:06:21;12.87;;;5.33;;
13951;SDS011;39535;52.192;9.886;2023-12-20T01:08:48;8.83;;;5.23;;
13951;SDS011;39535;52.192;9.886;2023-12-20T01:11:15;6.20;;;4.87;;
13951;SDS011;39535;52.192;9.886;2023-12-20T01:13:41;6.63;;;6.00;;
13951;SDS011;39535;52.192;9.886;2023-12-20T01:16:10;7.80;;;4.43;;
13951;SDS011;39535;52.192;9.886;2023-12-20T01:18:37;4.73;;;3.30;;
13951;SDS011;39535;52.192;9.886;2023-12-20T01:21:07;7.10;;;3.20;;
13951;SDS011;39535;52.192;9.886;2023-12-20T01:23:34;6.97;;;2.80;;
13951;SDS011;39535;52.192;9.886;2023-12-20T01:26:01;8.07;;;3.27;;
13951;SDS011;39535;52.192;9.886;2023-12-20T01:28:29;3.27;;;1.90;;
13951;SDS011;39535;52.192;9.886;2023-12-20T01:30:55;4.77;;;2.17;;
13951;SDS011;39535;52.192;9.886;2023-12-20T01:33:22;10.83;;;2.57;;
13951;SDS011;39535;52.192;9.886;2023-12-20T01:35:48;3.00;;;1.57;;
13951;SDS011;39535;52.192;9.886;2023-12-20T01:38:14;6.27;;;1.50;;
13951;SDS011;39535;52.192;9.886;2023-12-20T01:40:44;3.77;;;1.57;;
13951;SDS011;39535;52.192;9.886;2023-12-20T01:43:11;4.20;;;1.33;;
13951;SDS011;39535;52.192;9.886;2023-12-20T01:45:37;4.77;;;1.50;;
13951;SDS011;39535;52.192;9.886;2023-12-20T01:48:04;5.50;;;1.20;;
13951;SDS011;39535;52.192;9.886;2023-12-20T01:50:32;3.73;;;1.37;;
13951;SDS011;39535;52.192;9.886;2023-12-20T01:53:01;4.63;;;1.10;;
13951;SDS011;39535;52.192;9.886;2023-12-20T01:55:29;4.77;;;2.10;;
13951;SDS011;39535;52.192;9.886;2023-12-20T01:58:00;6.63;;;1.87;;
13951;SDS011;39535;52.192;9.886;2023-12-20T02:00:27;3.43;;;1.37;;
13951;SDS011;39535;52.192;9.886;2023-12-20T02:02:54;7.07;;;1.50;;
13951;SDS011;39535;52.192;9.886;2023-12-20T02:05:21;3.70;;;1.43;;
13951;SDS011;39535;52.192;9.886;2023-12-20T02:07:48;4.97;;;1.30;;
13951;SDS011;39535;52.192;9.886;2023-12-20T02:10:15;8.83;;;1.80;;
13951;SDS011;39535;52.192;9.886;2023-12-20T02:12:41;4.53;;;1.30;;
13951;SDS011;39535;52.192;9.886;2023-12-20T02:15:09;4.63;;;1.47;;
13951;SDS011;39535;52.192;9.886;2023-12-20T02:17:36;5.20;;;1.40;;
13951;SDS011;39535;52.192;9.886;2023-12-20T02:20:04;4.87;;;1.57;;
13951;SDS011;39535;52.192;9.886;2023-12-20T02:22:33;5.30;;;1.13;;
13951;SDS011;39535;52.192;9.886;2023-12-20T02:24:59;4.00;;;1.40;;
13951;SDS011;39535;52.192;9.886;2023-12-20T02:27:26;6.13;;;1.93;;
13951;SDS011;39535;52.192;9.886;2023-12-20T02:29:53;7.13;;;2.27;;
13951;SDS011;39535;52.192;9.886;2023-12-20T02:32:20;5.30;;;1.40;;
13951;SDS011;39535;52.192;9.886;2023-12-20T02:34:47;3.63;;;1.80;;
13951;SDS011;39535;52.192;9.886;2023-12-20T02:37:14;4.70;;;1.60;;
13951;SDS011;39535;52.192;9.886;2023-12-20T02:39:42;5.07;;;1.93;;
13951;SDS011;39535;52.192;9.886;2023-12-20T02:42:08;3.40;;;1.80;;
13951;SDS011;39535;52.192;9.886;2023-12-20T02:44:35;5.63;;;1.90;;
13951;SDS011;39535;52.192;9.886;2023-12-20T02:47:01;4.53;;;1.70;;
13951;SDS011;39535;52.192;9.886;2023-12-20T02:49:28;6.67;;;2.13;;
13951;SDS011;39535;52.192;9.886;2023-12-20T02:51:54;8.13;;;1.70;;
13951;SDS011;39535;52.192;9.886;2023-12-20T02:54:20;2.67;;;1.40;;
13951;SDS011;39535;52.192;9.886;2023-12-20T02:56:48;2.43;;;1.60;;
13951;SDS011;39535;52.192;9.886;2023-12-20T02:59:14;5.50;;;1.80;;
13951;SDS011;39535;52.192;9.886;2023-12-20T03:01:41;7.27;;;1.63;;
13951;SDS011;39535;52.192;9.886;2023-12-20T03:04:08;4.67;;;1.53;;
13951;SDS011;39535;52.192;9.886;2023-12-20T03:06:35;4.70;;;1.93;;
13951;SDS011;39535;52.192;9.886;2023-12-20T03:09:01;5.43;;;1.43;;
13951;SDS011;39535;52.192;9.886;2023-12-20T03:11:27;3.53;;;1.53;;
13951;SDS011;39535;52.192;9.886;2023-12-20T03:13:55;5.40;;;1.23;;
13951;SDS011;39535;52.192;9.886;2023-12-20T03:16:22;4.37;;;1.10;;
13951;SDS011;39535;52.192;9.886;2023-12-20T03:18:49;3.33;;;1.33;;
13951;SDS011;39535;52.192;9.886;2023-12-20T03:21:16;4.77;;;0.87;;
13951;SDS011;39535;52.192;9.886;2023-12-20T03:23:42;3.27;;;1.00;;
13951;SDS011;39535;52.192;9.886;2023-12-20T03:26:09;3.93;;;1.30;;
13951;SDS011;39535;52.192;9.886;2023-12-20T03:28:35;3.30;;;1.40;;
13951;SDS011;39535;52.192;9.886;2023-12-20T03:31:03;3.70;;;1.27;;
13951;SDS011;39535;52.192;9.886;2023-12-20T03:33:30;7.33;;;1.40;;
13951;SDS011;39535;52.192;9.886;2023-12-20T03:35:56;3.40;;;1.67;;
13951;SDS011;39535;52.192;9.886;2023-12-20T03:38:23;2.33;;;1.20;;
13951;SDS011;39535;52.192;9.886;2023-12-20T03:40:49;3.60;;;1.40;;
13951;SDS011;39535;52.192;9.886;2023-12-20T03:43:15;2.67;;;1.53;;
13951;SDS011;39535;52.192;9.886;2023-12-20T03:45:42;3.90;;;1.63;;
13951;SDS011;39535;52.192;9.886;2023-12-20T03:48:10;5.00;;;1.20;;
13951;SDS011;39535;52.192;9.886;2023-12-20T03:50:37;6.17;;;2.37;;
13951;SDS011;39535;52.192;9.886;2023-12-20T03:53:03;3.50;;;1.70;;
13951;SDS011;39535;52.192;9.886;2023-12-20T03:55:29;6.33;;;1.90;;
13951;SDS011;39535;52.192;9.886;2023-12-20T03:57:56;4.20;;;1.53;;
13951;SDS011;39535;52.192;9.886;2023-12-20T04:00:22;4.67;;;1.60;;
13951;SDS011;39535;52.192;9.886;2023-12-20T04:02:48;7.77;;;1.83;;
13951;SDS011;39535;52.192;9.886;2023-12-20T04:05:16;6.53;;;1.60;;
13951;SDS011;39535;52.192;9.886;2023-12-20T04:07:42;3.70;;;2.07;;
13951;SDS011;39535;52.192;9.886;2023-12-20T04:10:09;4.77;;;1.70;;
13951;SDS011;39535;52.192;9.886;2023-12-20T04:12:35;4.43;;;1.60;;
13951;SDS011;39535;52.192;9.886;2023-12-20T04:15:02;5.57;;;2.43;;
13951;SDS011;39535;52.192;9.886;2023-12-20T04:17:33;4.83;;;2.00;;
13951;SDS011;39535;52.192;9.886;2023-12-20T04:20:00;7.57;;;2.10;;
13951;SDS011;39535;52.192;9.886;2023-12-20T04:22:28;5.30;;;2.20;;
13951;SDS011;39535;52.192;9.886;2023-12-20T04:24:54;7.37;;;2.10;;
13951;SDS011;39535;52.192;9.886;2023-12-20T04:27:21;3.10;;;1.50;;
13951;SDS011;39535;52.192;9.886;2023-12-20T04:29:47;3.73;;;1.57;;
13951;SDS011;39535;52.192;9.886;2023-12-20T04:32:13;4.90;;;1.40;;
13951;SDS011;39535;52.192;9.886;2023-12-20T04:34:40;3.33;;;1.33;;
13951;SDS011;39535;52.192;9.886;2023-12-20T04:37:06;7.73;;;1.80;;
13951;SDS011;39535;52.192;9.886;2023-12-20T04:39:34;5.50;;;2.20;;
13951;SDS011;39535;52.192;9.886;2023-12-20T04:42:00;5.43;;;1.50;;
13951;SDS011;39535;52.192;9.886;2023-12-20T04:44:27;6.70;;;2.07;;
13951;SDS011;39535;52.192;9.886;2023-12-20T04:46:53;6.40;;;2.67;;
13951;SDS011;39535;52.192;9.886;2023-12-20T04:49:21;6.53;;;2.83;;
13951;SDS011;39535;52.192;9.886;2023-12-20T04:51:48;6.60;;;2.87;;
13951;SDS011;39535;52.192;9.886;2023-12-20T04:54:14;8.50;;;2.50;;
13951;SDS011;39535;52.192;9.886;2023-12-20T04:56:42;5.47;;;3.20;;
13951;SDS011;39535;52.192;9.886;2023-12-20T04:59:08;4.27;;;2.10;;
13951;SDS011;39535;52.192;9.886;2023-12-20T05:01:34;7.80;;;2.77;;
13951;SDS011;39535;52.192;9.886;2023-12-20T05:04:01;8.43;;;3.20;;
13951;SDS011;39535;52.192;9.886;2023-12-20T05:06:27;5.90;;;2.80;;
13951;SDS011;39535;52.192;9.886;2023-12-20T05:08:53;6.67;;;3.10;;
13951;SDS011;39535;52.192;9.886;2023-12-20T05:11:20;9.70;;;3.60;;
13951;SDS011;39535;52.192;9.886;2023-12-20T05:13:47;5.77;;;2.90;;
13951;SDS011;39535;52.192;9.886;2023-12-20T05:16:14;5.70;;;3.23;;
13951;SDS011;39535;52.192;9.886;2023-12-20T05:18:42;6.33;;;3.07;;
13951;SDS011;39535;52.192;9.886;2023-12-20T05:21:09;5.23;;;2.97;;
13951;SDS011;39535;52.192;9.886;2023-12-20T05:23:35;7.13;;;2.70;;
13951;SDS011;39535;52.192;9.886;2023-12-20T05:26:02;11.40;;;3.67;;
13951;SDS011;39535;52.192;9.886;2023-12-20T05:28:28;6.43;;;3.10;;
13951;SDS011;39535;52.192;9.886;2023-12-20T05:30:56;10.47;;;2.90;;
13951;SDS011;39535;52.192;9.886;2023-12-20T05:33:22;8.43;;;2.83;;
13951;SDS011;39535;52.192;9.886;2023-12-20T05:35:49;7.03;;;3.33;;
13951;SDS011;39535;52.192;9.886;2023-12-20T05:38:16;8.40;;;3.43;;
13951;SDS011;39535;52.192;9.886;2023-12-20T05:40:42;8.00;;;2.83;;
13951;SDS011;39535;52.192;9.886;2023-12-20T05:43:09;7.00;;;3.37;;
13951;SDS011;39535;52.192;9.886;2023-12-20T05:45:35;11.37;;;3.50;;
13951;SDS011;39535;52.192;9.886;2023-12-20T05:48:03;9.10;;;3.33;;
13951;SDS011;39535;52.192;9.886;2023-12-20T05:50:30;7.13;;;3.00;;
13951;SDS011;39535;52.192;9.886;2023-12-20T05:52:56;10.87;;;3.80;;
13951;SDS011;39535;52.192;9.886;2023-12-20T05:55:23;7.77;;;3.27;;
13951;SDS011;39535;52.192;9.886;2023-12-20T05:57:49;6.03;;;3.47;;
13951;SDS011;39535;52.192;9.886;2023-12-20T06:00:16;11.73;;;3.63;;
13951;SDS011;39535;52.192;9.886;2023-12-20T06:02:43;9.93;;;3.90;;
13951;SDS011;39535;52.192;9.886;2023-12-20T06:05:10;7.60;;;3.20;;
13951;SDS011;39535;52.192;9.886;2023-12-20T06:07:37;7.53;;;3.03;;
13951;SDS011;39535;52.192;9.886;2023-12-20T06:10:03;7.63;;;2.90;;
13951;SDS011;39535;52.192;9.886;2023-12-20T06:12:31;10.80;;;2.93;;
13951;SDS011;39535;52.192;9.886;2023-12-20T06:14:58;5.63;;;2.77;;
13951;SDS011;39535;52.192;9.886;2023-12-20T06:17:24;4.40;;;3.30;;
13951;SDS011;39535;52.192;9.886;2023-12-20T06:19:51;10.83;;;3.20;;
13951;SDS011;39535;52.192;9.886;2023-12-20T06:22:18;13.23;;;3.83;;
13951;SDS011;39535;52.192;9.886;2023-12-20T06:24:45;8.17;;;3.17;;
13951;SDS011;39535;52.192;9.886;2023-12-20T06:27:11;7.60;;;3.33;;
13951;SDS011;39535;52.192;9.886;2023-12-20T06:29:38;9.87;;;3.40;;
13951;SDS011;39535;52.192;9.886;2023-12-20T06:32:05;9.07;;;3.07;;
13951;SDS011;39535;52.192;9.886;2023-12-20T06:34:32;6.03;;;3.03;;
13951;SDS011;39535;52.192;9.886;2023-12-20T06:36:58;5.97;;;3.27;;
13951;SDS011;39535;52.192;9.886;2023-12-20T06:39:26;10.13;;;3.30;;
13951;SDS011;39535;52.192;9.886;2023-12-20T06:41:53;10.93;;;3.47;;
13951;SDS011;39535;52.192;9.886;2023-12-20T06:44:19;12.93;;;4.90;;
13951;SDS011;39535;52.192;9.886;2023-12-20T06:46:46;6.20;;;2.93;;
13951;SDS011;39535;52.192;9.886;2023-12-20T06:49:12;8.63;;;3.57;;
13951;SDS011;39535;52.192;9.886;2023-12-20T06:51:38;9.60;;;3.47;;
13951;SDS011;39535;52.192;9.886;2023-12-20T06:54:05;8.83;;;3.70;;
13951;SDS011;39535;52.192;9.886;2023-12-20T06:56:33;10.43;;;3.43;;
13951;SDS011;39535;52.192;9.886;2023-12-20T06:58:59;10.27;;;3.70;;
13951;SDS011;39535;52.192;9.886;2023-12-20T07:01:26;10.20;;;3.87;;
13951;SDS011;39535;52.192;9.886;2023-12-20T07:03:52;9.90;;;3.77;;
13951;SDS011;39535;52.192;9.886;2023-12-20T07:06:18;8.47;;;3.50;;
13951;SDS011;39535;52.192;9.886;2023-12-20T07:08:45;10.07;;;3.80;;
13951;SDS011;39535;52.192;9.886;2023-12-20T07:11:11;12.53;;;3.23;;
13951;SDS011;39535;52.192;9.886;2023-12-20T07:13:39;6.80;;;2.77;;
13951;SDS011;39535;52.192;9.886;2023-12-20T07:16:06;8.10;;;2.90;;
13951;SDS011;39535;52.192;9.886;2023-12-20T07:18:32;9.63;;;2.77;;
13951;SDS011;39535;52.192;9.886;2023-12-20T07:20:59;6.87;;;2.63;;
13951;SDS011;39535;52.192;9.886;2023-12-20T07:23:25;7.80;;;2.50;;
13951;SDS011;39535;52.192;9.886;2023-12-20T07:25:51;8.27;;;3.03;;
13951;SDS011;39535;52.192;9.886;2023-12-20T07:28:18;5.50;;;2.50;;
13951;SDS011;39535;52.192;9.886;2023-12-20T07:30:45;10.70;;;2.90;;
13951;SDS011;39535;52.192;9.886;2023-12-20T07:33:12;7.07;;;2.97;;
13951;SDS011;39535;52.192;9.886;2023-12-20T07:35:38;10.53;;;3.20;;
13951;SDS011;39535;52.192;9.886;2023-12-20T07:38:05;14.13;;;2.80;;
13951;SDS011;39535;52.192;9.886;2023-12-20T07:40:31;8.23;;;3.40;;
13951;SDS011;39535;52.192;9.886;2023-12-20T07:42:58;7.47;;;2.90;;
13951;SDS011;39535;52.192;9.886;2023-12-20T07:45:24;9.53;;;3.70;;
13951;SDS011;39535;52.192;9.886;2023-12-20T07:47:52;9.40;;;3.83;;
13951;SDS011;39535;52.192;9.886;2023-12-20T07:50:18;8.23;;;3.93;;
13951;SDS011;39535;52.192;9.886;2023-12-20T07:52:44;11.10;;;4.37;;
13951;SDS011;39535;52.192;9.886;2023-12-20T07:55:11;8.83;;;4.80;;
13951;SDS011;39535;52.192;9.886;2023-12-20T07:57:37;7.70;;;3.77;;
13951;SDS011;39535;52.192;9.886;2023-12-20T08:00:04;12.40;;;3.50;;
13951;SDS011;39535;52.192;9.886;2023-12-20T08:02:31;8.53;;;4.80;;
13951;SDS011;39535;52.192;9.886;2023-12-20T08:04:59;13.73;;;3.80;;
13951;SDS011;39535;52.192;9.886;2023-12-20T08:07:25;10.30;;;4.13;;
13951;SDS011;39535;52.192;9.886;2023-12-20T08:09:52;8.47;;;4.10;;
13951;SDS011;39535;52.192;9.886;2023-12-20T08:12:19;13.30;;;3.93;;
13951;SDS011;39535;52.192;9.886;2023-12-20T08:14:46;11.93;;;5.37;;
13951;SDS011;39535;52.192;9.886;2023-12-20T08:17:12;8.47;;;4.17;;
13951;SDS011;39535;52.192;9.886;2023-12-20T08:19:41;14.17;;;5.40;;
13951;SDS011;39535;52.192;9.886;2023-12-20T08:22:08;15.70;;;6.37;;
13951;SDS011;39535;52.192;9.886;2023-12-20T08:24:35;12.63;;;4.90;;
13951;SDS011;39535;52.192;9.886;2023-12-20T08:27:01;8.33;;;4.30;;
13951;SDS011;39535;52.192;9.886;2023-12-20T08:29:28;14.70;;;5.07;;
13951;SDS011;39535;52.192;9.886;2023-12-20T08:31:54;15.73;;;4.20;;
13951;SDS011;39535;52.192;9.886;2023-12-20T08:34:21;10.47;;;4.27;;
13951;SDS011;39535;52.192;9.886;2023-12-20T08:36:48;12.87;;;4.13;;
13951;SDS011;39535;52.192;9.886;2023-12-20T08:39:16;10.57;;;4.57;;
13951;SDS011;39535;52.192;9.886;2023-12-20T08:41:42;11.93;;;4.07;;
13951;SDS011;39535;52.192;9.886;2023-12-20T08:44:09;7.50;;;4.07;;
13951;SDS011;39535;52.192;9.886;2023-12-20T08:46:35;13.60;;;4.43;;
13951;SDS011;39535;52.192;9.886;2023-12-20T08:49:02;8.53;;;4.93;;
13951;SDS011;39535;52.192;9.886;2023-12-20T08:51:28;7.63;;;4.20;;
13951;SDS011;39535;52.192;9.886;2023-12-20T08:53:55;6.97;;;4.73;;
13951;SDS011;39535;52.192;9.886;2023-12-20T08:56:23;10.00;;;4.67;;
13951;SDS011;39535;52.192;9.886;2023-12-20T08:58:49;7.80;;;3.90;;
13951;SDS011;39535;52.192;9.886;2023-12-20T09:01:15;11.97;;;4.27;;
13951;SDS011;39535;52.192;9.886;2023-12-20T09:03:42;9.40;;;4.03;;
13951;SDS011;39535;52.192;9.886;2023-12-20T09:06:09;8.67;;;3.93;;
13951;SDS011;39535;52.192;9.886;2023-12-20T09:08:35;7.30;;;3.70;;
13951;SDS011;39535;52.192;9.886;2023-12-20T09:11:02;9.33;;;4.70;;
13951;SDS011;39535;52.192;9.886;2023-12-20T09:13:29;9.97;;;3.93;;
13951;SDS011;39535;52.192;9.886;2023-12-20T09:15:57;8.40;;;4.40;;
13951;SDS011;39535;52.192;9.886;2023-12-20T09:18:23;11.03;;;4.87;;
13951;SDS011;39535;52.192;9.886;2023-12-20T09:20:50;15.67;;;4.50;;
13951;SDS011;39535;52.192;9.886;2023-12-20T09:23:17;8.40;;;4.00;;
13951;SDS011;39535;52.192;9.886;2023-12-20T09:25:43;8.30;;;2.93;;
13951;SDS011;39535;52.192;9.886;2023-12-20T09:28:10;5.50;;;3.27;;
13951;SDS011;39535;52.192;9.886;2023-12-20T09:30:37;6.33;;;3.67;;
13951;SDS011;39535;52.192;9.886;2023-12-20T09:33:05;10.63;;;4.43;;
13951;SDS011;39535;52.192;9.886;2023-12-20T09:35:32;9.73;;;3.27;;
13951;SDS011;39535;52.192;9.886;2023-12-20T09:37:58;8.37;;;3.60;;
13951;SDS011;39535;52.192;9.886;2023-12-20T09:40:25;6.77;;;3.63;;
13951;SDS011;39535;52.192;9.886;2023-12-20T09:42:55;4.93;;;3.37;;
13951;SDS011;39535;52.192;9.886;2023-12-20T09:45:23;8.47;;;4.37;;
13951;SDS011;39535;52.192;9.886;2023-12-20T09:47:51;10.20;;;3.57;;
13951;SDS011;39535;52.192;9.886;2023-12-20T09:50:19;9.43;;;3.10;;
13951;SDS011;39535;52.192;9.886;2023-12-20T09:52:47;11.70;;;3.53;;
13951;SDS011;39535;52.192;9.886;2023-12-20T09:55:16;8.90;;;3.23;;
13951;SDS011;39535;52.192;9.886;2023-12-20T09:57:43;10.57;;;3.50;;
13951;SDS011;39535;52.192;9.886;2023-12-20T10:00:10;6.63;;;3.10;;
13951;SDS011;39535;52.192;9.886;2023-12-20T10:02:38;9.10;;;3.60;;
13951;SDS011;39535;52.192;9.886;2023-12-20T10:05:09;10.03;;;3.80;;
13951;SDS011;39535;52.192;9.886;2023-12-20T10:07:44;7.40;;;2.87;;
13951;SDS011;39535;52.192;9.886;2023-12-20T10:10:10;8.23;;;3.53;;
13951;SDS011;39535;52.192;9.886;2023-12-20T10:12:39;9.20;;;4.03;;
13951;SDS011;39535;52.192;9.886;2023-12-20T10:15:05;7.10;;;3.47;;
13951;SDS011;39535;52.192;9.886;2023-12-20T10:17:32;7.97;;;3.17;;
13951;SDS011;39535;52.192;9.886;2023-12-20T10:19:58;7.77;;;3.23;;
13951;SDS011;39535;52.192;9.886;2023-12-20T10:22:26;6.50;;;3.33;;
13951;SDS011;39535;52.192;9.886;2023-12-20T10:24:53;6.83;;;3.93;;
13951;SDS011;39535;52.192;9.886;2023-12-20T10:27:19;6.13;;;4.27;;
13951;SDS011;39535;52.192;9.886;2023-12-20T10:29:46;8.07;;;3.37;;
13951;SDS011;39535;52.192;9.886;2023-12-20T10:32:22;10.00;;;4.30;;
13951;SDS011;39535;52.192;9.886;2023-12-20T10:34:49;6.80;;;4.80;;
13951;SDS011;39535;52.192;9.886;2023-12-20T10:37:16;6.40;;;5.33;;
13951;SDS011;39535;52.192;9.886;2023-12-20T10:39:44;6.67;;;3.90;;
13951;SDS011;39535;52.192;9.886;2023-12-20T10:42:16;6.40;;;4.50;;
13951;SDS011;39535;52.192;9.886;2023-12-20T10:44:44;10.33;;;4.93;;
13951;SDS011;39535;52.192;9.886;2023-12-20T10:47:10;8.37;;;4.50;;
13951;SDS011;39535;52.192;9.886;2023-12-20T10:49:38;7.27;;;5.23;;
13951;SDS011;39535;52.192;9.886;2023-12-20T10:52:06;7.43;;;5.40;;
13951;SDS011;39535;52.192;9.886;2023-12-20T10:54:33;14.07;;;5.97;;
13951;SDS011;39535;52.192;9.886;2023-12-20T10:57:01;7.93;;;5.50;;
13951;SDS011;39535;52.192;9.886;2023-12-20T10:59:32;10.57;;;6.13;;
13951;SDS011;39535;52.192;9.886;2023-12-20T11:01:59;9.67;;;6.07;;
13951;SDS011;39535;52.192;9.886;2023-12-20T11:04:31;8.50;;;6.20;;
13951;SDS011;39535;52.192;9.886;2023-12-20T11:07:07;6.90;;;6.10;;
13951;SDS011;39535;52.192;9.886;2023-12-20T11:09:44;8.50;;;6.13;;
13951;SDS011;39535;52.192;9.886;2023-12-20T11:12:17;12.03;;;6.53;;
13951;SDS011;39535;52.192;9.886;2023-12-20T11:14:50;13.97;;;6.47;;
13951;SDS011;39535;52.192;9.886;2023-12-20T11:17:19;10.23;;;6.30;;
13951;SDS011;39535;52.192;9.886;2023-12-20T11:20:04;13.03;;;7.27;;
13951;SDS011;39535;52.192;9.886;2023-12-20T11:22:32;12.90;;;7.87;;
13951;SDS011;39535;52.192;9.886;2023-12-20T11:25:02;11.23;;;7.60;;
13951;SDS011;39535;52.192;9.886;2023-12-20T11:27:32;8.43;;;6.40;;
13951;SDS011;39535;52.192;9.886;2023-12-20T11:29:59;12.07;;;6.27;;
13951;SDS011;39535;52.192;9.886;2023-12-20T11:32:29;11.33;;;7.50;;
13951;SDS011;39535;52.192;9.886;2023-12-20T11:34:55;10.50;;;6.70;;
13951;SDS011;39535;52.192;9.886;2023-12-20T11:37:28;8.73;;;6.27;;
13951;SDS011;39535;52.192;9.886;2023-12-20T11:39:57;11.87;;;7.93;;
13951;SDS011;39535;52.192;9.886;2023-12-20T11:42:27;13.33;;;8.33;;
13951;SDS011;39535;52.192;9.886;2023-12-20T11:44:55;16.40;;;7.33;;
13951;SDS011;39535;52.192;9.886;2023-12-20T11:47:22;8.80;;;6.03;;
13951;SDS011;39535;52.192;9.886;2023-12-20T11:49:48;14.57;;;8.40;;
13951;SDS011;39535;52.192;9.886;2023-12-20T11:52:16;11.40;;;7.50;;
13951;SDS011;39535;52.192;9.886;2023-12-20T11:54:42;8.60;;;6.53;;
13951;SDS011;39535;52.192;9.886;2023-12-20T11:57:08;7.90;;;5.07;;
13951;SDS011;39535;52.192;9.886;2023-12-20T11:59:35;5.60;;;4.63;;
13951;SDS011;39535;52.192;9.886;2023-12-20T12:02:03;9.27;;;5.10;;
13951;SDS011;39535;52.192;9.886;2023-12-20T12:05:23;12.73;;;4.83;;
13951;SDS011;39535;52.192;9.886;2023-12-20T12:08:05;10.13;;;4.30;;
13951;SDS011;39535;52.192;9.886;2023-12-20T12:10:32;10.77;;;3.83;;
13951;SDS011;39535;52.192;9.886;2023-12-20T12:15:55;3.57;;;0.87;;
13951;SDS011;39535;52.192;9.886;2023-12-20T12:18:23;2.00;;;0.60;;
13951;SDS011;39535;52.192;9.886;2023-12-20T12:20:59;0.73;;;0.50;;
13951;SDS011;39535;52.192;9.886;2023-12-20T12:23:34;3.17;;;1.07;;
13951;SDS011;39535;52.192;9.886;2023-12-20T12:26:03;1.87;;;0.70;;
13951;SDS011;39535;52.192;9.886;2023-12-20T12:28:36;1.87;;;0.70;;
13951;SDS011;39535;52.192;9.886;2023-12-20T12:31:05;2.73;;;0.50;;
13951;SDS011;39535;52.192;9.886;2023-12-20T12:33:33;2.63;;;0.70;;
13951;SDS011;39535;52.192;9.886;2023-12-20T12:36:05;1.60;;;0.63;;
13951;SDS011;39535;52.192;9.886;2023-12-20T12:38:39;3.67;;;0.70;;
13951;SDS011;39535;52.192;9.886;2023-12-20T12:41:10;1.10;;;0.43;;
13951;SDS011;39535;52.192;9.886;2023-12-20T12:43:41;2.40;;;0.77;;
13951;SDS011;39535;52.192;9.886;2023-12-20T12:46:08;1.10;;;0.30;;
13951;SDS011;39535;52.192;9.886;2023-12-20T12:48:35;2.37;;;0.57;;
13951;SDS011;39535;52.192;9.886;2023-12-20T12:51:02;1.03;;;0.73;;
13951;SDS011;39535;52.192;9.886;2023-12-20T12:53:29;1.50;;;0.50;;
13951;SDS011;39535;52.192;9.886;2023-12-20T12:55:55;0.33;;;0.30;;
13951;SDS011;39535;52.192;9.886;2023-12-20T12:58:27;2.00;;;0.77;;
13951;SDS011;39535;52.192;9.886;2023-12-20T13:00:55;2.67;;;0.70;;
13951;SDS011;39535;52.192;9.886;2023-12-20T13:03:21;1.67;;;0.50;;
13951;SDS011;39535;52.192;9.886;2023-12-20T13:05:59;1.03;;;0.60;;
13951;SDS011;39535;52.192;9.886;2023-12-20T13:08:26;3.20;;;0.80;;
13951;SDS011;39535;52.192;9.886;2023-12-20T13:11:10;4.07;;;0.80;;
13951;SDS011;39535;52.192;9.886;2023-12-20T13:13:53;1.30;;;0.57;;
13951;SDS011;39535;52.192;9.886;2023-12-20T13:16:23;1.47;;;0.40;;
13951;SDS011;39535;52.192;9.886;2023-12-20T13:18:56;1.83;;;0.60;;
13951;SDS011;39535;52.192;9.886;2023-12-20T13:21:29;0.60;;;0.40;;
13951;SDS011;39535;52.192;9.886;2023-12-20T13:24:04;2.27;;;0.40;;
13951;SDS011;39535;52.192;9.886;2023-12-20T13:26:44;1.60;;;0.47;;
13951;SDS011;39535;52.192;9.886;2023-12-20T13:29:14;3.03;;;0.50;;
13951;SDS011;39535;52.192;9.886;2023-12-20T13:31:41;1.03;;;0.50;;
13951;SDS011;39535;52.192;9.886;2023-12-20T13:34:15;1.50;;;0.47;;
13951;SDS011;39535;52.192;9.886;2023-12-20T13:36:46;1.70;;;0.60;;
13951;SDS011;39535;52.192;9.886;2023-12-20T13:39:16;0.93;;;0.70;;
13951;SDS011;39535;52.192;9.886;2023-12-20T13:41:50;1.33;;;0.80;;
13951;SDS011;39535;52.192;9.886;2023-12-20T13:44:17;2.00;;;0.50;;
13951;SDS011;39535;52.192;9.886;2023-12-20T13:46:43;1.93;;;1.20;;
13951;SDS011;39535;52.192;9.886;2023-12-20T13:49:10;1.87;;;0.80;;
13951;SDS011;39535;52.192;9.886;2023-12-20T13:51:37;1.03;;;0.80;;
13951;SDS011;39535;52.192;9.886;2023-12-20T13:54:05;1.67;;;0.80;;
13951;SDS011;39535;52.192;9.886;2023-12-20T13:56:31;2.27;;;0.87;;
13951;SDS011;39535;52.192;9.886;2023-12-20T13:58:58;1.73;;;0.53;;
13951;SDS011;39535;52.192;9.886;2023-12-20T14:01:25;2.60;;;1.07;;
13951;SDS011;39535;52.192;9.886;2023-12-20T14:03:52;2.57;;;0.90;;
13951;SDS011;39535;52.192;9.886;2023-12-20T14:06:18;1.30;;;0.77;;
13951;SDS011;39535;52.192;9.886;2023-12-20T14:08:45;2.77;;;1.00;;
13951;SDS011;39535;52.192;9.886;2023-12-20T14:11:12;2.40;;;0.70;;
13951;SDS011;39535;52.192;9.886;2023-12-20T14:13:40;1.87;;;1.23;;
13951;SDS011;39535;52.192;9.886;2023-12-20T14:16:08;2.40;;;0.90;;
13951;SDS011;39535;52.192;9.886;2023-12-20T14:18:35;2.60;;;1.00;;
13951;SDS011;39535;52.192;9.886;2023-12-20T14:21:02;3.13;;;1.07;;
13951;SDS011;39535;52.192;9.886;2023-12-20T14:23:28;4.77;;;1.57;;
13951;SDS011;39535;52.192;9.886;2023-12-20T14:25:54;3.93;;;2.13;;
13951;SDS011;39535;52.192;9.886;2023-12-20T14:28:24;3.77;;;2.07;;
13951;SDS011;39535;52.192;9.886;2023-12-20T14:30:51;4.80;;;2.10;;
13951;SDS011;39535;52.192;9.886;2023-12-20T14:33:17;3.00;;;2.00;;
13951;SDS011;39535;52.192;9.886;2023-12-20T14:35:46;5.13;;;1.67;;
13951;SDS011;39535;52.192;9.886;2023-12-20T14:38:12;4.23;;;1.20;;
13951;SDS011;39535;52.192;9.886;2023-12-20T14:40:40;4.53;;;1.17;;
13951;SDS011;39535;52.192;9.886;2023-12-20T14:43:06;2.57;;;0.80;;
13951;SDS011;39535;52.192;9.886;2023-12-20T14:45:34;2.83;;;1.10;;
13951;SDS011;39535;52.192;9.886;2023-12-20T14:48:00;2.03;;;1.20;;
13951;SDS011;39535;52.192;9.886;2023-12-20T14:50:27;2.90;;;1.00;;